Smit Barbados — MSDU8 — position and weather

sailwx.info

Track history (hours):
 
Tides and Currents Weather Stations Pressure Air Temp Water Temp Dewpoint Dewpoint Depression Visibility Wind Speed Wind Dir Waves Ship Positions

Smit Barbados

Last reported at 2014-Oct-20 12:33 UTC. Time now 2014-Oct-20 13:02 UTC.
Position N 53°26' W 002°60'.

Length 30 m; draft 4.8 m.

Type: Tug. MMSI: 235055303.

Date/timePositionNaut miles runAvg speedWind from/ knotsBaromVisibWave heightAir tempDewpointWater temp
2014-Oct-20 12:33N 53°26' W 002°60'1 0.7
2014-Oct-20 11:33N 53°26' W 003°01'4 4.0
2014-Oct-20 10:33N 53°23' W 002°59'3 2.8
2014-Oct-20 09:23N 53°19' W 002°57'3 3.7
2014-Oct-20 08:33N 53°22' W 002°59'4 4.3
2014-Oct-20 07:33N 53°27' W 003°01'1 0.7
2014-Oct-20 06:33N 53°26' W 002°60'0 0.0
2014-Oct-20 05:33N 53°26' W 002°60'0 0.0
2014-Oct-20 04:33N 53°26' W 002°60'0 0.0
2014-Oct-20 03:33N 53°26' W 002°60'0 0.0
2014-Oct-20 02:33N 53°26' W 002°60'0 0.0
2014-Oct-20 01:33N 53°26' W 002°60'0 0.0
2014-Oct-20 00:33N 53°26' W 002°60'0 0.0
2014-Oct-19 23:33N 53°26' W 002°60'0 0.0
2014-Oct-19 22:33N 53°26' W 002°60'0 0.0
2014-Oct-19 21:33N 53°26' W 002°60'0 0.0
2014-Oct-19 20:32N 53°26' W 002°60'0 0.0
2014-Oct-19 19:33N 53°26' W 002°60'2 1.6
2014-Oct-19 18:33N 53°27' W 003°01'1 0.5
2014-Oct-19 17:33N 53°27' W 003°01'2 2.1
2014-Oct-19 16:34N 53°28' W 003°03'3 2.5
2014-Oct-19 15:33N 53°26' W 003°01'1 0.7
2014-Oct-19 14:33N 53°26' W 002°60'0 0.0
2014-Oct-19 13:33N 53°26' W 002°60'0 0.0
2014-Oct-19 12:33N 53°26' W 002°60'0 0.0
2014-Oct-19 11:32N 53°26' W 002°60'0 0.0
2014-Oct-19 10:33N 53°26' W 002°60'0 0.0
2014-Oct-19 09:33N 53°26' W 002°60'0 0.0
2014-Oct-19 08:33N 53°26' W 002°60'0 0.0
2014-Oct-19 07:33N 53°26' W 002°60'0 0.0
2014-Oct-19 06:33N 53°26' W 002°60'0 0.0
2014-Oct-19 05:33N 53°26' W 002°60'0 0.0
2014-Oct-19 04:33N 53°26' W 002°60'0 0.0
2014-Oct-19 03:33N 53°26' W 002°60'0 0.0
2014-Oct-19 02:33N 53°26' W 002°60'0 0.0
2014-Oct-19 01:33N 53°26' W 002°60'0 0.0
2014-Oct-19 00:33N 53°26' W 002°60'0 0.0
2014-Oct-18 23:33N 53°26' W 002°60'0 0.0
2014-Oct-18 22:33N 53°26' W 002°60'2 1.7
2014-Oct-18 21:33N 53°27' W 003°01'0 0.3
2014-Oct-18 20:33N 53°28' W 003°01'0 0.0
2014-Oct-18 19:33N 53°28' W 003°01'1 0.5
2014-Oct-18 18:33N 53°27' W 003°01'0 0.5
2014-Oct-18 17:33N 53°28' W 003°01'2 1.9
2014-Oct-18 16:33N 53°26' W 002°60'0 0.0
2014-Oct-18 15:33N 53°26' W 002°60'0 0.0
2014-Oct-18 14:33N 53°26' W 002°60'0 0.0
2014-Oct-18 13:33N 53°26' W 002°60'0 0.0
2014-Oct-18 12:33N 53°26' W 002°60'0 0.0
2014-Oct-18 11:33N 53°26' W 002°60'0 0.0
2014-Oct-18 10:33N 53°26' W 002°60'0 0.0
2014-Oct-18 09:33N 53°26' W 002°60'0 0.0
2014-Oct-18 08:33N 53°26' W 002°60'0 0.0
2014-Oct-18 07:33N 53°26' W 002°60'0 0.0
2014-Oct-18 06:33N 53°26' W 002°60'0 0.0
2014-Oct-18 05:33N 53°26' W 002°60'0 0.0
2014-Oct-18 04:33N 53°26' W 002°60'0 0.0
2014-Oct-18 03:33N 53°26' W 002°60'0 0.0
2014-Oct-18 02:33N 53°26' W 002°60'0 0.0
2014-Oct-18 01:33N 53°26' W 002°60'0 0.0
2014-Oct-18 00:33N 53°26' W 002°60'0 0.0
2014-Oct-17 23:33N 53°26' W 002°60'0 0.0
2014-Oct-17 22:33N 53°26' W 002°60'0 0.0
2014-Oct-17 21:33N 53°26' W 002°60'0 0.0
2014-Oct-17 20:33N 53°26' W 002°60'1 1.4
2014-Oct-17 19:32N 53°27' W 003°01'1 0.6
2014-Oct-17 18:33N 53°28' W 003°01'1 0.5
2014-Oct-17 17:33N 53°27' W 003°01'0 0.2
2014-Oct-17 16:33N 53°27' W 003°01'0 0.1
2014-Oct-17 15:33N 53°27' W 003°01'1 1.4
2014-Oct-17 14:33N 53°26' W 002°60'0 0.0
2014-Oct-17 13:33N 53°26' W 002°60'0 0.0
2014-Oct-17 12:33N 53°26' W 002°60'0 0.0
2014-Oct-17 11:33N 53°26' W 002°60'0 0.0
2014-Oct-17 10:33N 53°26' W 002°60'0 0.0
2014-Oct-17 09:33N 53°26' W 002°60'0 0.0
2014-Oct-17 08:33N 53°26' W 002°60'0 0.0
2014-Oct-17 07:33N 53°26' W 002°60'2 2.0
2014-Oct-17 06:33N 53°28' W 003°02'1 0.6
2014-Oct-17 05:33N 53°27' W 003°01'2 2.4
2014-Oct-17 04:33N 53°29' W 003°04'3 3.1
2014-Oct-17 03:33N 53°26' W 003°01'1 0.7
2014-Oct-17 02:34N 53°26' W 002°60'0 0.0
2014-Oct-17 01:34N 53°26' W 002°60'0 0.0
2014-Oct-17 00:34N 53°26' W 002°60'0 0.0
2014-Oct-16 23:34N 53°26' W 002°60'0 0.0
2014-Oct-16 22:33N 53°26' W 002°60'0 0.0
2014-Oct-16 21:33N 53°26' W 002°60'0 0.0
2014-Oct-16 20:33N 53°26' W 002°60'0 0.0
2014-Oct-16 19:33N 53°26' W 002°60'0 0.0
2014-Oct-16 18:33N 53°26' W 002°60'0 0.0
2014-Oct-16 17:33N 53°26' W 002°60'0 0.0
2014-Oct-16 16:34N 53°26' W 002°60'0 0.0
2014-Oct-16 15:34N 53°26' W 002°60'0 0.0
2014-Oct-16 14:33N 53°26' W 002°60'0 0.0
2014-Oct-16 13:34N 53°26' W 002°60'0 0.0
2014-Oct-16 12:34N 53°26' W 002°60'0 0.0
2014-Oct-16 11:33N 53°26' W 002°60'0 0.0
2014-Oct-16 10:33N 53°26' W 002°60'0 0.0
2014-Oct-16 09:33N 53°26' W 002°60'0 0.0
2014-Oct-16 08:34N 53°26' W 002°60'1 0.7
2014-Oct-16 07:33N 53°26' W 003°01'5 5.1
2014-Oct-16 06:33N 53°22' W 002°58'2 0.9
2014-Oct-16 04:32N 53°20' W 002°57'3 3.4
2014-Oct-16 03:31N 53°23' W 002°60'3 2.8
2014-Oct-16 02:33N 53°25' W 003°01'2 1.7
2014-Oct-16 01:33N 53°27' W 003°01'0 0.0
2014-Oct-16 00:33N 53°27' W 003°01'0 0.5
2014-Oct-15 23:33N 53°28' W 003°02'0 0.2
2014-Oct-15 22:33N 53°28' W 003°01'1 1.2
2014-Oct-15 21:33N 53°26' W 003°00'1 0.7
2014-Oct-15 20:33N 53°26' W 002°60'0 0.0
2014-Oct-15 19:33N 53°26' W 002°60'0 0.0
2014-Oct-15 18:33N 53°26' W 002°60'0 0.0
2014-Oct-15 17:33N 53°26' W 002°60'0 0.0
2014-Oct-15 16:33N 53°26' W 002°60'0 0.0
2014-Oct-15 15:33N 53°26' W 002°60'0 0.0
2014-Oct-15 14:33N 53°26' W 002°60'0 0.0
2014-Oct-15 13:33N 53°26' W 002°60'0 0.0
2014-Oct-15 12:33N 53°26' W 002°60'0 0.0
2014-Oct-15 11:33N 53°26' W 002°60'0 0.1
2014-Oct-15 10:33N 53°26' W 003°00'0 0.0
2014-Oct-15 09:33N 53°26' W 003°00'0 0.2
2014-Oct-15 08:33N 53°26' W 002°60'0 0.0
2014-Oct-15 07:33N 53°26' W 002°60'0 0.0
2014-Oct-15 06:33N 53°26' W 002°60'0 0.0
2014-Oct-15 05:33N 53°26' W 002°60'0 0.3
2014-Oct-15 04:33N 53°26' W 003°00'1 1.4
2014-Oct-15 03:33N 53°27' W 003°01'1 0.7
2014-Oct-15 02:33N 53°27' W 003°02'0 0.4
2014-Oct-15 01:33N 53°27' W 003°02'2 1.5
2014-Oct-15 00:33N 53°26' W 002°60'0 0.0
2014-Oct-14 23:33N 53°26' W 002°60'0 0.0
2014-Oct-14 22:33N 53°26' W 002°60'0 0.0
2014-Oct-14 21:33N 53°26' W 002°60'0 0.0
2014-Oct-14 20:33N 53°26' W 002°60'0 0.0
2014-Oct-14 19:33N 53°26' W 002°60'0 0.0
2014-Oct-14 18:33N 53°26' W 002°60'0 0.0
2014-Oct-14 17:33N 53°26' W 002°60'0 0.0
2014-Oct-14 16:33N 53°26' W 002°60'0 0.0
2014-Oct-14 15:33N 53°26' W 002°60'1 1.3
2014-Oct-14 14:33N 53°27' W 003°01'1 0.5
2014-Oct-14 13:33N 53°26' W 003°01'0 0.3
2014-Oct-14 12:33N 53°26' W 003°01'1 0.6
2014-Oct-14 11:33N 53°27' W 003°01'0 0.2
2014-Oct-14 10:33N 53°27' W 003°01'0 0.4
2014-Oct-14 09:33N 53°27' W 003°01'2 1.5
2014-Oct-14 08:33N 53°26' W 003°00'0 0.0
2014-Oct-14 07:33N 53°26' W 002°60'0 0.0
2014-Oct-14 06:33N 53°26' W 002°60'0 0.0
2014-Oct-14 05:33N 53°26' W 002°60'0 0.0
2014-Oct-14 04:33N 53°26' W 002°60'0 0.0
2014-Oct-14 03:33N 53°26' W 002°60'1 1.2
2014-Oct-14 02:33N 53°25' W 003°00'5 2.3
2014-Oct-14 00:28N 53°20' W 002°57'6 6.8
2014-Oct-13 23:33N 53°26' W 003°00'0 0.4
2014-Oct-13 22:33N 53°26' W 002°60'0 0.0
2014-Oct-13 21:33N 53°26' W 002°60'0 0.0
2014-Oct-13 20:34N 53°26' W 002°60'0 0.0
2014-Oct-13 19:33N 53°26' W 002°60'0 0.0
2014-Oct-13 18:33N 53°26' W 002°60'0 0.0
2014-Oct-13 17:33N 53°26' W 002°60'0 0.0
2014-Oct-13 16:33N 53°26' W 002°60'1 1.4
2014-Oct-13 15:33N 53°27' W 003°01'0 0.1
2014-Oct-13 14:33N 53°27' W 003°01'1 1.4
2014-Oct-13 13:34N 53°26' W 003°00'0 0.2
2014-Oct-13 12:33N 53°26' W 002°60'0 0.0
2014-Oct-13 11:33N 53°26' W 002°60'0 0.0
2014-Oct-13 10:31N 53°26' W 002°60'0 0.0
2014-Oct-13 09:33N 53°26' W 002°60'0 0.0
2014-Oct-13 08:33N 53°26' W 002°60'0 0.0
2014-Oct-13 07:33N 53°26' W 002°60'0 0.0
2014-Oct-13 06:33N 53°26' W 002°60'0 0.0
2014-Oct-13 05:33N 53°26' W 002°60'0 0.0
2014-Oct-13 04:33N 53°26' W 002°60'0 0.0
2014-Oct-13 03:33N 53°26' W 002°60'0 0.0
2014-Oct-13 02:33N 53°26' W 002°60'0 0.0
2014-Oct-13 01:33N 53°26' W 002°60'0 0.0
2014-Oct-13 00:33N 53°26' W 002°60'0 0.0
2014-Oct-12 23:33N 53°26' W 002°60'0 0.0
2014-Oct-12 22:33N 53°26' W 002°60'0 0.0
2014-Oct-12 21:33N 53°26' W 002°60'0 0.0
2014-Oct-12 20:33N 53°26' W 002°60'0 0.0
2014-Oct-12 19:33N 53°26' W 002°60'0 0.0
2014-Oct-12 18:33N 53°26' W 002°60'0 0.0
2014-Oct-12 17:33N 53°26' W 002°60'0 0.0
2014-Oct-12 16:33N 53°26' W 002°60'0 0.0
2014-Oct-12 15:33N 53°26' W 002°60'0 0.0
2014-Oct-12 14:33N 53°26' W 002°60'2 1.6
2014-Oct-12 13:33N 53°27' W 003°01'1 0.5
2014-Oct-12 12:33N 53°27' W 003°01'2 1.6
2014-Oct-12 11:33N 53°28' W 003°03'1 1.4
2014-Oct-12 10:33N 53°27' W 003°01'1 1.3
2014-Oct-12 09:33N 53°26' W 002°60'0 0.0
2014-Oct-12 08:33N 53°26' W 002°60'0 0.0
2014-Oct-12 07:33N 53°26' W 002°60'0 0.0
2014-Oct-12 06:33N 53°26' W 002°60'0 0.0
2014-Oct-12 05:33N 53°26' W 002°60'0 0.0
2014-Oct-12 04:33N 53°26' W 002°60'0 0.0
2014-Oct-12 03:33N 53°26' W 002°60'0 0.0
2014-Oct-12 02:33N 53°26' W 002°60'0 0.2
2014-Oct-12 01:33N 53°26' W 003°00'1 1.1
2014-Oct-12 00:33N 53°27' W 003°01'0 0.3
2014-Oct-11 23:33N 53°27' W 003°01'1 1.4
2014-Oct-11 22:33N 53°26' W 003°00'0 0.2
2014-Oct-11 21:33N 53°26' W 002°60'0 0.0
2014-Oct-11 20:33N 53°26' W 002°60'0 0.0
2014-Oct-11 19:33N 53°26' W 002°60'0 0.0
2014-Oct-11 18:33N 53°26' W 002°60'0 0.0
2014-Oct-11 17:33N 53°26' W 002°60'0 0.0
2014-Oct-11 16:33N 53°26' W 002°60'0 0.0
2014-Oct-11 15:33N 53°26' W 002°60'0 0.0
2014-Oct-11 14:33N 53°26' W 002°60'1 0.6
2014-Oct-11 13:33N 53°26' W 003°00'1 0.8
2014-Oct-11 12:33N 53°27' W 003°01'0 0.4
2014-Oct-11 11:33N 53°27' W 003°01'2 1.8
2014-Oct-11 10:33N 53°28' W 003°03'2 2.4
2014-Oct-11 09:34N 53°26' W 003°01'1 0.6
2014-Oct-11 08:33N 53°26' W 002°60'0 0.0
2014-Oct-11 07:33N 53°26' W 002°60'2 1.9
2014-Oct-11 06:33N 53°28' W 003°02'0 0.2
2014-Oct-11 05:33N 53°28' W 003°02'0 0.0
2014-Oct-11 04:33N 53°28' W 003°02'0 0.0
2014-Oct-11 03:33N 53°28' W 003°02'0 0.0
2014-Oct-11 02:33N 53°28' W 003°02'0 0.0
2014-Oct-11 01:33N 53°28' W 003°02'0 0.0
2014-Oct-11 00:33N 53°28' W 003°02'1 0.8
2014-Oct-10 23:32N 53°27' W 003°01'2 2.0
2014-Oct-10 22:33N 53°28' W 003°04'2 1.9
2014-Oct-10 21:33N 53°27' W 003°01'1 0.6
2014-Oct-10 20:33N 53°28' W 003°01'2 2.0
2014-Oct-10 19:33N 53°26' W 002°60'0 0.0
2014-Oct-10 18:33N 53°26' W 002°60'0 0.0
2014-Oct-10 17:33N 53°26' W 002°60'0 0.0
2014-Oct-10 16:34N 53°26' W 002°60'0 0.0
2014-Oct-10 15:33N 53°26' W 002°60'0 0.0
2014-Oct-10 14:33N 53°26' W 002°60'0 0.0
2014-Oct-10 13:34N 53°26' W 002°60'0 0.0
2014-Oct-10 12:34N 53°26' W 002°60'  
Track history (hours):
 
Tides and Currents Weather Stations Pressure Air Temp Water Temp Dewpoint Dewpoint Depression Visibility Wind Speed Wind Dir Waves Ship Positions

Smit Barbados

Last reported at 2014-Oct-20 12:33 UTC. Time now 2014-Oct-20 13:02 UTC.
Position N 53°26' W 002°60'.

Length 30 m; draft 4.8 m.

Type: Tug. MMSI: 235055303.

Date/timePositionNaut miles runAvg speedWind from/ knotsBaromVisibWave heightAir tempDewpointWater temp
2014-Oct-20 12:33N 53°26' W 002°60'1 0.7
2014-Oct-20 11:33N 53°26' W 003°01'4 4.0
2014-Oct-20 10:33N 53°23' W 002°59'3 2.8
2014-Oct-20 09:23N 53°19' W 002°57'3 3.7
2014-Oct-20 08:33N 53°22' W 002°59'4 4.3
2014-Oct-20 07:33N 53°27' W 003°01'1 0.7
2014-Oct-20 06:33N 53°26' W 002°60'0 0.0
2014-Oct-20 05:33N 53°26' W 002°60'0 0.0
2014-Oct-20 04:33N 53°26' W 002°60'0 0.0
2014-Oct-20 03:33N 53°26' W 002°60'0 0.0
2014-Oct-20 02:33N 53°26' W 002°60'0 0.0
2014-Oct-20 01:33N 53°26' W 002°60'0 0.0
2014-Oct-20 00:33N 53°26' W 002°60'0 0.0
2014-Oct-19 23:33N 53°26' W 002°60'0 0.0
2014-Oct-19 22:33N 53°26' W 002°60'0 0.0
2014-Oct-19 21:33N 53°26' W 002°60'0 0.0
2014-Oct-19 20:32N 53°26' W 002°60'0 0.0
2014-Oct-19 19:33N 53°26' W 002°60'2 1.6
2014-Oct-19 18:33N 53°27' W 003°01'1 0.5
2014-Oct-19 17:33N 53°27' W 003°01'2 2.1
2014-Oct-19 16:34N 53°28' W 003°03'3 2.5
2014-Oct-19 15:33N 53°26' W 003°01'1 0.7
2014-Oct-19 14:33N 53°26' W 002°60'0 0.0
2014-Oct-19 13:33N 53°26' W 002°60'0 0.0
2014-Oct-19 12:33N 53°26' W 002°60'0 0.0
2014-Oct-19 11:32N 53°26' W 002°60'0 0.0
2014-Oct-19 10:33N 53°26' W 002°60'0 0.0
2014-Oct-19 09:33N 53°26' W 002°60'0 0.0
2014-Oct-19 08:33N 53°26' W 002°60'0 0.0
2014-Oct-19 07:33N 53°26' W 002°60'0 0.0
2014-Oct-19 06:33N 53°26' W 002°60'0 0.0
2014-Oct-19 05:33N 53°26' W 002°60'0 0.0
2014-Oct-19 04:33N 53°26' W 002°60'0 0.0
2014-Oct-19 03:33N 53°26' W 002°60'0 0.0
2014-Oct-19 02:33N 53°26' W 002°60'0 0.0
2014-Oct-19 01:33N 53°26' W 002°60'0 0.0
2014-Oct-19 00:33N 53°26' W 002°60'0 0.0
2014-Oct-18 23:33N 53°26' W 002°60'0 0.0
2014-Oct-18 22:33N 53°26' W 002°60'2 1.7
2014-Oct-18 21:33N 53°27' W 003°01'0 0.3
2014-Oct-18 20:33N 53°28' W 003°01'0 0.0
2014-Oct-18 19:33N 53°28' W 003°01'1 0.5
2014-Oct-18 18:33N 53°27' W 003°01'0 0.5
2014-Oct-18 17:33N 53°28' W 003°01'2 1.9
2014-Oct-18 16:33N 53°26' W 002°60'0 0.0
2014-Oct-18 15:33N 53°26' W 002°60'0 0.0
2014-Oct-18 14:33N 53°26' W 002°60'0 0.0
2014-Oct-18 13:33N 53°26' W 002°60'0 0.0
2014-Oct-18 12:33N 53°26' W 002°60'0 0.0
2014-Oct-18 11:33N 53°26' W 002°60'0 0.0
2014-Oct-18 10:33N 53°26' W 002°60'0 0.0
2014-Oct-18 09:33N 53°26' W 002°60'0 0.0
2014-Oct-18 08:33N 53°26' W 002°60'0 0.0
2014-Oct-18 07:33N 53°26' W 002°60'0 0.0
2014-Oct-18 06:33N 53°26' W 002°60'0 0.0
2014-Oct-18 05:33N 53°26' W 002°60'0 0.0
2014-Oct-18 04:33N 53°26' W 002°60'0 0.0
2014-Oct-18 03:33N 53°26' W 002°60'0 0.0
2014-Oct-18 02:33N 53°26' W 002°60'0 0.0
2014-Oct-18 01:33N 53°26' W 002°60'0 0.0
2014-Oct-18 00:33N 53°26' W 002°60'0 0.0
2014-Oct-17 23:33N 53°26' W 002°60'0 0.0
2014-Oct-17 22:33N 53°26' W 002°60'0 0.0
2014-Oct-17 21:33N 53°26' W 002°60'0 0.0
2014-Oct-17 20:33N 53°26' W 002°60'1 1.4
2014-Oct-17 19:32N 53°27' W 003°01'1 0.6
2014-Oct-17 18:33N 53°28' W 003°01'1 0.5
2014-Oct-17 17:33N 53°27' W 003°01'0 0.2
2014-Oct-17 16:33N 53°27' W 003°01'0 0.1
2014-Oct-17 15:33N 53°27' W 003°01'1 1.4
2014-Oct-17 14:33N 53°26' W 002°60'0 0.0
2014-Oct-17 13:33N 53°26' W 002°60'0 0.0
2014-Oct-17 12:33N 53°26' W 002°60'0 0.0
2014-Oct-17 11:33N 53°26' W 002°60'0 0.0
2014-Oct-17 10:33N 53°26' W 002°60'0 0.0
2014-Oct-17 09:33N 53°26' W 002°60'0 0.0
2014-Oct-17 08:33N 53°26' W 002°60'0 0.0
2014-Oct-17 07:33N 53°26' W 002°60'2 2.0
2014-Oct-17 06:33N 53°28' W 003°02'1 0.6
2014-Oct-17 05:33N 53°27' W 003°01'2 2.4
2014-Oct-17 04:33N 53°29' W 003°04'3 3.1
2014-Oct-17 03:33N 53°26' W 003°01'1 0.7
2014-Oct-17 02:34N 53°26' W 002°60'0 0.0
2014-Oct-17 01:34N 53°26' W 002°60'0 0.0
2014-Oct-17 00:34N 53°26' W 002°60'0 0.0
2014-Oct-16 23:34N 53°26' W 002°60'0 0.0
2014-Oct-16 22:33N 53°26' W 002°60'0 0.0
2014-Oct-16 21:33N 53°26' W 002°60'0 0.0
2014-Oct-16 20:33N 53°26' W 002°60'0 0.0
2014-Oct-16 19:33N 53°26' W 002°60'0 0.0
2014-Oct-16 18:33N 53°26' W 002°60'0 0.0
2014-Oct-16 17:33N 53°26' W 002°60'0 0.0
2014-Oct-16 16:34N 53°26' W 002°60'0 0.0
2014-Oct-16 15:34N 53°26' W 002°60'0 0.0
2014-Oct-16 14:33N 53°26' W 002°60'0 0.0
2014-Oct-16 13:34N 53°26' W 002°60'0 0.0
2014-Oct-16 12:34N 53°26' W 002°60'0 0.0
2014-Oct-16 11:33N 53°26' W 002°60'0 0.0
2014-Oct-16 10:33N 53°26' W 002°60'0 0.0
2014-Oct-16 09:33N 53°26' W 002°60'0 0.0
2014-Oct-16 08:34N 53°26' W 002°60'1 0.7
2014-Oct-16 07:33N 53°26' W 003°01'5 5.1
2014-Oct-16 06:33N 53°22' W 002°58'2 0.9
2014-Oct-16 04:32N 53°20' W 002°57'3 3.4
2014-Oct-16 03:31N 53°23' W 002°60'3 2.8
2014-Oct-16 02:33N 53°25' W 003°01'2 1.7
2014-Oct-16 01:33N 53°27' W 003°01'0 0.0
2014-Oct-16 00:33N 53°27' W 003°01'0 0.5
2014-Oct-15 23:33N 53°28' W 003°02'0 0.2
2014-Oct-15 22:33N 53°28' W 003°01'1 1.2
2014-Oct-15 21:33N 53°26' W 003°00'1 0.7
2014-Oct-15 20:33N 53°26' W 002°60'0 0.0
2014-Oct-15 19:33N 53°26' W 002°60'0 0.0
2014-Oct-15 18:33N 53°26' W 002°60'0 0.0
2014-Oct-15 17:33N 53°26' W 002°60'0 0.0
2014-Oct-15 16:33N 53°26' W 002°60'0 0.0
2014-Oct-15 15:33N 53°26' W 002°60'0 0.0
2014-Oct-15 14:33N 53°26' W 002°60'0 0.0
2014-Oct-15 13:33N 53°26' W 002°60'0 0.0
2014-Oct-15 12:33N 53°26' W 002°60'0 0.0
2014-Oct-15 11:33N 53°26' W 002°60'0 0.1
2014-Oct-15 10:33N 53°26' W 003°00'0 0.0
2014-Oct-15 09:33N 53°26' W 003°00'0 0.2
2014-Oct-15 08:33N 53°26' W 002°60'0 0.0
2014-Oct-15 07:33N 53°26' W 002°60'0 0.0
2014-Oct-15 06:33N 53°26' W 002°60'0 0.0
2014-Oct-15 05:33N 53°26' W 002°60'0 0.3
2014-Oct-15 04:33N 53°26' W 003°00'1 1.4
2014-Oct-15 03:33N 53°27' W 003°01'1 0.7
2014-Oct-15 02:33N 53°27' W 003°02'0 0.4
2014-Oct-15 01:33N 53°27' W 003°02'2 1.5
2014-Oct-15 00:33N 53°26' W 002°60'0 0.0
2014-Oct-14 23:33N 53°26' W 002°60'0 0.0
2014-Oct-14 22:33N 53°26' W 002°60'0 0.0
2014-Oct-14 21:33N 53°26' W 002°60'0 0.0
2014-Oct-14 20:33N 53°26' W 002°60'0 0.0
2014-Oct-14 19:33N 53°26' W 002°60'0 0.0
2014-Oct-14 18:33N 53°26' W 002°60'0 0.0
2014-Oct-14 17:33N 53°26' W 002°60'0 0.0
2014-Oct-14 16:33N 53°26' W 002°60'0 0.0
2014-Oct-14 15:33N 53°26' W 002°60'1 1.3
2014-Oct-14 14:33N 53°27' W 003°01'1 0.5
2014-Oct-14 13:33N 53°26' W 003°01'0 0.3
2014-Oct-14 12:33N 53°26' W 003°01'1 0.6
2014-Oct-14 11:33N 53°27' W 003°01'0 0.2
2014-Oct-14 10:33N 53°27' W 003°01'0 0.4
2014-Oct-14 09:33N 53°27' W 003°01'2 1.5
2014-Oct-14 08:33N 53°26' W 003°00'0 0.0
2014-Oct-14 07:33N 53°26' W 002°60'0 0.0
2014-Oct-14 06:33N 53°26' W 002°60'0 0.0
2014-Oct-14 05:33N 53°26' W 002°60'0 0.0
2014-Oct-14 04:33N 53°26' W 002°60'0 0.0
2014-Oct-14 03:33N 53°26' W 002°60'1 1.2
2014-Oct-14 02:33N 53°25' W 003°00'5 2.3
2014-Oct-14 00:28N 53°20' W 002°57'6 6.8
2014-Oct-13 23:33N 53°26' W 003°00'0 0.4
2014-Oct-13 22:33N 53°26' W 002°60'0 0.0
2014-Oct-13 21:33N 53°26' W 002°60'0 0.0
2014-Oct-13 20:34N 53°26' W 002°60'0 0.0
2014-Oct-13 19:33N 53°26' W 002°60'0 0.0
2014-Oct-13 18:33N 53°26' W 002°60'0 0.0
2014-Oct-13 17:33N 53°26' W 002°60'0 0.0
2014-Oct-13 16:33N 53°26' W 002°60'1 1.4
2014-Oct-13 15:33N 53°27' W 003°01'0 0.1
2014-Oct-13 14:33N 53°27' W 003°01'1 1.4
2014-Oct-13 13:34N 53°26' W 003°00'0 0.2
2014-Oct-13 12:33N 53°26' W 002°60'0 0.0
2014-Oct-13 11:33N 53°26' W 002°60'0 0.0
2014-Oct-13 10:31N 53°26' W 002°60'0 0.0
2014-Oct-13 09:33N 53°26' W 002°60'0 0.0
2014-Oct-13 08:33N 53°26' W 002°60'0 0.0
2014-Oct-13 07:33N 53°26' W 002°60'0 0.0
2014-Oct-13 06:33N 53°26' W 002°60'0 0.0
2014-Oct-13 05:33N 53°26' W 002°60'0 0.0
2014-Oct-13 04:33N 53°26' W 002°60'0 0.0
2014-Oct-13 03:33N 53°26' W 002°60'0 0.0
2014-Oct-13 02:33N 53°26' W 002°60'0 0.0
2014-Oct-13 01:33N 53°26' W 002°60'0 0.0
2014-Oct-13 00:33N 53°26' W 002°60'0 0.0
2014-Oct-12 23:33N 53°26' W 002°60'0 0.0
2014-Oct-12 22:33N 53°26' W 002°60'0 0.0
2014-Oct-12 21:33N 53°26' W 002°60'0 0.0
2014-Oct-12 20:33N 53°26' W 002°60'0 0.0
2014-Oct-12 19:33N 53°26' W 002°60'0 0.0
2014-Oct-12 18:33N 53°26' W 002°60'0 0.0
2014-Oct-12 17:33N 53°26' W 002°60'0 0.0
2014-Oct-12 16:33N 53°26' W 002°60'0 0.0
2014-Oct-12 15:33N 53°26' W 002°60'0 0.0
2014-Oct-12 14:33N 53°26' W 002°60'2 1.6
2014-Oct-12 13:33N 53°27' W 003°01'1 0.5
2014-Oct-12 12:33N 53°27' W 003°01'2 1.6
2014-Oct-12 11:33N 53°28' W 003°03'1 1.4
2014-Oct-12 10:33N 53°27' W 003°01'1 1.3
2014-Oct-12 09:33N 53°26' W 002°60'0 0.0
2014-Oct-12 08:33N 53°26' W 002°60'0 0.0
2014-Oct-12 07:33N 53°26' W 002°60'0 0.0
2014-Oct-12 06:33N 53°26' W 002°60'0 0.0
2014-Oct-12 05:33N 53°26' W 002°60'0 0.0
2014-Oct-12 04:33N 53°26' W 002°60'0 0.0
2014-Oct-12 03:33N 53°26' W 002°60'0 0.0
2014-Oct-12 02:33N 53°26' W 002°60'0 0.2
2014-Oct-12 01:33N 53°26' W 003°00'1 1.1
2014-Oct-12 00:33N 53°27' W 003°01'0 0.3
2014-Oct-11 23:33N 53°27' W 003°01'1 1.4
2014-Oct-11 22:33N 53°26' W 003°00'0 0.2
2014-Oct-11 21:33N 53°26' W 002°60'0 0.0
2014-Oct-11 20:33N 53°26' W 002°60'0 0.0
2014-Oct-11 19:33N 53°26' W 002°60'0 0.0
2014-Oct-11 18:33N 53°26' W 002°60'0 0.0
2014-Oct-11 17:33N 53°26' W 002°60'0 0.0
2014-Oct-11 16:33N 53°26' W 002°60'0 0.0
2014-Oct-11 15:33N 53°26' W 002°60'0 0.0
2014-Oct-11 14:33N 53°26' W 002°60'1 0.6
2014-Oct-11 13:33N 53°26' W 003°00'1 0.8
2014-Oct-11 12:33N 53°27' W 003°01'0 0.4
2014-Oct-11 11:33N 53°27' W 003°01'2 1.8
2014-Oct-11 10:33N 53°28' W 003°03'2 2.4
2014-Oct-11 09:34N 53°26' W 003°01'1 0.6
2014-Oct-11 08:33N 53°26' W 002°60'0 0.0
2014-Oct-11 07:33N 53°26' W 002°60'2 1.9
2014-Oct-11 06:33N 53°28' W 003°02'0 0.2
2014-Oct-11 05:33N 53°28' W 003°02'0 0.0
2014-Oct-11 04:33N 53°28' W 003°02'0 0.0
2014-Oct-11 03:33N 53°28' W 003°02'0 0.0
2014-Oct-11 02:33N 53°28' W 003°02'0 0.0
2014-Oct-11 01:33N 53°28' W 003°02'0 0.0
2014-Oct-11 00:33N 53°28' W 003°02'1 0.8
2014-Oct-10 23:32N 53°27' W 003°01'2 2.0
2014-Oct-10 22:33N 53°28' W 003°04'2 1.9
2014-Oct-10 21:33N 53°27' W 003°01'1 0.6
2014-Oct-10 20:33N 53°28' W 003°01'2 2.0
2014-Oct-10 19:33N 53°26' W 002°60'0 0.0
2014-Oct-10 18:33N 53°26' W 002°60'0 0.0
2014-Oct-10 17:33N 53°26' W 002°60'0 0.0
2014-Oct-10 16:34N 53°26' W 002°60'0 0.0
2014-Oct-10 15:33N 53°26' W 002°60'0 0.0
2014-Oct-10 14:33N 53°26' W 002°60'0 0.0
2014-Oct-10 13:34N 53°26' W 002°60'0 0.0
2014-Oct-10 12:34N 53°26' W 002°60'  

Dump ship's entire track history